Terminal Aerodrome Forecast
Issued by NWS

Home | Current Version | Previous Version | Graphics & Text | Print | Product List | Glossary On
Versions: 1 2 3 4 5 6 7 8 9 10 11 12 13 14 15 16 17 18 19 20
251
FTUS43 KGRB 310254 AAA
TAFMTW
TAF AMD
KMTW 310254Z 3103/3124 35010KT P6SM SCT035 BKN060
     FM310320 01015G25KT P6SM SCT025 OVC040
     FM310500 02010G17KT P6SM SKC
     FM311500 36009G17KT P6SM SCT045
     FM312200 02007KT P6SM SKC=

USA.gov is the U.S. government's official web portal to all federal, state and local government web resources and services.